»·PEaware :: N26913 KSNA-KONT

N26913 :: KSNA-KONT

FLIGHT INFORMATION

Flight Status: Arrived
Operator: Privately registered:
United States
More flights under this callsign
Pilot: Scott K. (2517)
Aircraft: Unknown
(B35)
More flights by this aircraft type
Origin: KSNA John Wayne-Orange Co
United States
Destination: KONT Ontario Intl
United States
More flights between these airports :: More routes between these airports
Route: +JOGIT PRADO BAYJY
File this flight plan on PilotEdge
Remarks:
Altitude:
(Current/Filed)
3,500ft
Speed:
(Current/Filed)
150kts
Departed: 16-Feb-14 01:54 PM
Arrived: 16-Feb-14 02:19 PM
Distance/Time
Traveled:
27nm/0:25
Distance/Time
To Go:
Arrived

Flight Plot

Page will automatically refresh every two minutes.

Flight plan parsing failed; only flown route is shown


Map Options




Map Legend


Flown Route
Filed Route
Departure Airport
Arrival Airport
Navaid (VOR, NDB)
Fix

Horizontal Profiles

Position Reports

Time Latitude Longitude Heading Altitude Ground
Speed
16-Feb-14 13:30 33.680458 -117.861602 0 39ft 0kts
16-Feb-14 13:31 33.680458 -117.861602 118 39ft 0kts
16-Feb-14 13:32 33.680458 -117.861602 118 39ft 0kts
16-Feb-14 13:33 33.680458 -117.861602 118 39ft 0kts
16-Feb-14 13:34 33.680458 -117.861602 118 39ft 0kts
16-Feb-14 13:35 33.680458 -117.861602 118 39ft 0kts
16-Feb-14 13:36 33.680458 -117.861602 118 39ft 0kts
16-Feb-14 13:37 33.680458 -117.861602 118 39ft 0kts
16-Feb-14 13:38 33.680458 -117.861602 118 39ft 0kts
16-Feb-14 13:39 33.680458 -117.861602 118 39ft 0kts
16-Feb-14 13:40 33.680458 -117.861602 118 39ft 0kts
16-Feb-14 13:41 33.680458 -117.861602 118 39ft 0kts
16-Feb-14 13:42 33.680458 -117.861600 118 39ft 0kts
16-Feb-14 13:43 33.680409 -117.861626 250 39ft 0kts
16-Feb-14 13:44 33.680405 -117.861695 279 39ft 0kts
16-Feb-14 13:45 33.679621 -117.863658 295 40ft 0kts
16-Feb-14 13:46 33.679621 -117.863658 295 40ft 0kts
16-Feb-14 13:47 33.679621 -117.863658 295 40ft 0kts
16-Feb-14 13:48 33.679694 -117.863791 310 40ft 0kts
16-Feb-14 13:49 33.679766 -117.863888 313 40ft 5kts
16-Feb-14 13:50 33.668876 -117.871850 216 570ft 78kts
16-Feb-14 13:51 33.676712 -117.885248 345 1489ft 96kts
16-Feb-14 13:52 33.696281 -117.890721 343 2038ft 131kts
16-Feb-14 13:53 33.721069 -117.887310 35 2043ft 174kts
16-Feb-14 13:54 33.746660 -117.863064 41 2024ft 178kts
16-Feb-14 13:55 33.773288 -117.836931 44 2388ft 164kts
16-Feb-14 13:56 33.798121 -117.806471 50 2990ft 153kts
16-Feb-14 13:57 33.825405 -117.777467 28 3460ft 162kts
16-Feb-14 13:58 33.862440 -117.774198 358 3433ft 177kts
16-Feb-14 13:59 33.904209 -117.775333 359 3329ft 184kts
16-Feb-14 14:00 33.944749 -117.776560 354 3470ft 178kts
16-Feb-14 14:01 33.983103 -117.779669 353 3481ft 172kts
16-Feb-14 14:02 34.018870 -117.782791 354 3489ft 169kts
16-Feb-14 14:03 34.054051 -117.785126 353 3497ft 165kts
16-Feb-14 14:04 34.095540 -117.788915 356 3505ft 164kts
16-Feb-14 14:05 34.115398 -117.766118 100 3590ft 168kts
16-Feb-14 14:06 34.105128 -117.734113 111 3156ft 154kts
16-Feb-14 14:07 34.095987 -117.707100 112 2431ft 135kts
16-Feb-14 14:08 34.086664 -117.682141 113 1939ft 105kts
16-Feb-14 14:09 34.081588 -117.660538 101 2041ft 98kts
16-Feb-14 14:10 34.075800 -117.636241 107 2138ft 106kts
16-Feb-14 14:11 34.071083 -117.610165 91 2143ft 84kts
16-Feb-14 14:12 34.071293 -117.586975 91 1934ft 81kts
16-Feb-14 14:13 34.063183 -117.572549 172 1492ft 71kts
16-Feb-14 14:14 34.056863 -117.584543 269 930ft 54kts
16-Feb-14 14:15 34.058189 -117.589553 355 935ft 5kts
16-Feb-14 14:16 34.059663 -117.590428 357 938ft 0kts
16-Feb-14 14:17 34.059663 -117.590428 357 938ft 0kts
16-Feb-14 14:18 34.059663 -117.590428 357 938ft 0kts
16-Feb-14 14:19 34.059663 -117.590428 357 938ft 0kts
16-Feb-14 14:20 34.059663 -117.590428 357 938ft 0kts
16-Feb-14 14:21 34.059663 -117.590428 357 938ft 0kts
16-Feb-14 14:22 34.059663 -117.590428 357 938ft 0kts
16-Feb-14 14:23 34.059663 -117.590428 357 938ft 0kts
16-Feb-14 14:24 34.059663 -117.590428 357 938ft 0kts

Navigation Log

Ident Type
Flight plan parsing failed, navigation log unavailable